Aérodrome :
LOGIN :

S'inscrire | Disclaimer

   EN    FR    IT 

 










Légende :    VFR   VFR Marginal   IFR   IFR Intensif   IFR Très Intensif
Visi : 
Plafond : 
>= 8 km
>= 3000ft
5 à 8 km
1000 à 3000 ft
1500m à 5 km
500 à 1000 ft
800 à 1500m
200 à 500 ft
< 800m
< 200 ft
Symboles :   Orages  Brouillard  Fortes neiges  Fortes précipitations  Vent > 20 kt
SIGMETs :   Divers  Orages  Givrage  Turbulence  Onde Orograph.  Cendres Volcan.







- Altitude de l'aérodrome : 1213 ft
- Code IATA : SCQ


LEST - Santiago de Compostela

DERNIER METAR :
  • 201400Z VRB03KT CAVOK 23/12 Q1020 NOSIG

METARs EXPIRÉS :
  • 201330Z VRB04KT CAVOK 23/12 Q1020 NOSIG
  • 201300Z VRB04KT CAVOK 22/12 Q1020 NOSIG
  • 201230Z 33003KT 260V060 CAVOK 21/12 Q1020 NOSIG
  • 201200Z VRB02KT CAVOK 20/12 Q1021 NOSIG
  • 201130Z VRB01KT CAVOK 18/13 Q1021 NOSIG

TAF TAF LEST
Valide du 20 à 12h jusqu'au 21 à 12h UTC


201100Z 2012/2112 36008KT CAVOK TX21/2015Z TN11/2103Z
BECMG 2100/2104 20010KT BKN014
PROB40
TEMPO 2100/2106 0600 BCFG BKN002
TEMPO 2106/2112 3000 -RADZ BKN005 BKN010
PROB40
TEMPO 2106/2112 1500 RA BKN002
BECMG 2108/2112 36010KT
Pas de NOTAMs connus pour ce terrain.



MET'MAP, la Météo Aéronautique d'un coup d'oeil ! - Copyright ORBIFLY Décembre 2007 - Disclaimer

ORBIFLY MET'MAP TEAM :

Programmation & Développement : Alexandra Zaïnal
Conception & Développement : Baudouin d'Aumeries
Co-Programmation & Développement : Marc-Olivier Méhu
Soutien technique & logistique : Manuel Goepfert

Contact : metmap@orbifly.com




SOURCES & CREDITS :

   NOAA